Time;durP1;ratioP1;P1;durP2;ratioP2;P2;SDS_P1;SDS_P2;PMS_P1;PMS_P2;Temp;Humidity;BMP_temperature;BMP_pressure;BME280_temperature;BME280_humidity;BME280_pressure;Samples;Min_cycle;Max_cycle;Signal;HPM_P1;HPM_P2
2020/11/17 00:01:40;;;;;;;1.3;0.9;;;;;;;;;;;;;
2020/11/17 00:04:05;;;;;;;2.8;0.9;;;;;;;;;;;;;
2020/11/17 00:06:30;;;;;;;2.4;1;;;;;;;;;;;;;
2020/11/17 00:08:55;;;;;;;1.7;0.8;;;;;;;;;;;;;
2020/11/17 00:11:20;;;;;;;1.5;0.9;;;;;;;;;;;;;
2020/11/17 00:13:46;;;;;;;1.8;0.5;;;;;;;;;;;;;
2020/11/17 00:16:12;;;;;;;1.9;0.9;;;;;;;;;;;;;
2020/11/17 00:18:37;;;;;;;1.2;0.8;;;;;;;;;;;;;
2020/11/17 00:21:02;;;;;;;0.7;0.6;;;;;;;;;;;;;
2020/11/17 00:23:28;;;;;;;1.2;1;;;;;;;;;;;;;
2020/11/17 00:25:54;;;;;;;1.4;0.9;;;;;;;;;;;;;
2020/11/17 00:28:20;;;;;;;1.5;0.8;;;;;;;;;;;;;
2020/11/17 00:30:45;;;;;;;1.3;0.9;;;;;;;;;;;;;
2020/11/17 00:33:13;;;;;;;1.3;0.7;;;;;;;;;;;;;
2020/11/17 00:35:36;;;;;;;1.7;1;;;;;;;;;;;;;
2020/11/17 00:38:02;;;;;;;2.3;1.1;;;;;;;;;;;;;
2020/11/17 00:40:27;;;;;;;2;1.3;;;;;;;;;;;;;
2020/11/17 00:42:55;;;;;;;4.3;1.1;;;;;;;;;;;;;
2020/11/17 00:45:20;;;;;;;1.2;0.7;;;;;;;;;;;;;
2020/11/17 00:47:45;;;;;;;0.8;0.8;;;;;;;;;;;;;
2020/11/17 00:50:10;;;;;;;1.5;1;;;;;;;;;;;;;
2020/11/17 00:52:36;;;;;;;2;1;;;;;;;;;;;;;
2020/11/17 00:55:01;;;;;;;1.3;0.8;;;;;;;;;;;;;
2020/11/17 00:57:28;;;;;;;1.3;0.8;;;;;;;;;;;;;
2020/11/17 00:59:53;;;;;;;0.9;0.6;;;;;;;;;;;;;
2020/11/17 01:02:18;;;;;;;1.5;0.8;;;;;;;;;;;;;
2020/11/17 01:04:43;;;;;;;1.2;0.9;;;;;;;;;;;;;
2020/11/17 01:07:08;;;;;;;1;0.8;;;;;;;;;;;;;
2020/11/17 01:09:35;;;;;;;2.2;0.9;;;;;;;;;;;;;
2020/11/17 01:12:01;;;;;;;3.6;1.3;;;;;;;;;;;;;
2020/11/17 01:14:28;;;;;;;1.4;0.9;;;;;;;;;;;;;
2020/11/17 01:16:53;;;;;;;2;1.1;;;;;;;;;;;;;
2020/11/17 01:19:18;;;;;;;2.9;1.3;;;;;;;;;;;;;
2020/11/17 01:21:43;;;;;;;2.1;1.6;;;;;;;;;;;;;
2020/11/17 01:24:08;;;;;;;2.4;1.2;;;;;;;;;;;;;
2020/11/17 01:26:33;;;;;;;3;1.5;;;;;;;;;;;;;
2020/11/17 01:28:59;;;;;;;3.7;1.3;;;;;;;;;;;;;
2020/11/17 01:31:24;;;;;;;2.9;1.6;;;;;;;;;;;;;
2020/11/17 01:33:52;;;;;;;1.4;1.1;;;;;;;;;;;;;
2020/11/17 01:36:17;;;;;;;2.8;1;;;;;;;;;;;;;
2020/11/17 01:38:42;;;;;;;2.2;0.8;;;;;;;;;;;;;
2020/11/17 01:41:08;;;;;;;2.1;1.1;;;;;;;;;;;;;
2020/11/17 01:43:33;;;;;;;1.5;1;;;;;;;;;;;;;
2020/11/17 01:45:58;;;;;;;1.5;0.8;;;;;;;;;;;;;
2020/11/17 01:48:26;;;;;;;1;0.8;;;;;;;;;;;;;
2020/11/17 01:50:51;;;;;;;2.7;1;;;;;;;;;;;;;
2020/11/17 01:53:16;;;;;;;1.6;0.9;;;;;;;;;;;;;
2020/11/17 01:55:41;;;;;;;3;0.9;;;;;;;;;;;;;
2020/11/17 01:58:08;;;;;;;1.4;0.7;;;;;;;;;;;;;
2020/11/17 02:00:34;;;;;;;0.8;0.7;;;;;;;;;;;;;
2020/11/17 02:02:59;;;;;;;0.9;0.7;;;;;;;;;;;;;
2020/11/17 02:05:24;;;;;;;2.4;0.7;;;;;;;;;;;;;
2020/11/17 02:07:50;;;;;;;0.6;0.4;;;;;;;;;;;;;
2020/11/17 02:10:16;;;;;;;0.9;0.9;;;;;;;;;;;;;
2020/11/17 02:12:42;;;;;;;2.3;1.1;;;;;;;;;;;;;
2020/11/17 02:15:07;;;;;;;3.6;1;;;;;;;;;;;;;
2020/11/17 02:17:34;;;;;;;0.9;0.8;;;;;;;;;;;;;
2020/11/17 02:19:59;;;;;;;2.8;0.9;;;;;;;;;;;;;
2020/11/17 02:22:25;;;;;;;1.6;0.9;;;;;;;;;;;;;
2020/11/17 02:24:50;;;;;;;1;0.8;;;;;;;;;;;;;
2020/11/17 02:27:16;;;;;;;0.8;0.6;;;;;;;;;;;;;
2020/11/17 02:29:41;;;;;;;1.7;0.8;;;;;;;;;;;;;
2020/11/17 02:32:08;;;;;;;1;0.8;;;;;;;;;;;;;
2020/11/17 02:34:33;;;;;;;0.4;0.3;;;;;;;;;;;;;
2020/11/17 02:37:00;;;;;;;0.3;0.3;;;;;;;;;;;;;
2020/11/17 02:39:25;;;;;;;0.8;0.5;;;;;;;;;;;;;
2020/11/17 02:41:51;;;;;;;0.5;0.5;;;;;;;;;;;;;
2020/11/17 02:44:16;;;;;;;0.9;0.5;;;;;;;;;;;;;
2020/11/17 02:46:42;;;;;;;1;0.8;;;;;;;;;;;;;
2020/11/17 02:49:07;;;;;;;0.7;0.3;;;;;;;;;;;;;
2020/11/17 02:51:33;;;;;;;0.9;0.5;;;;;;;;;;;;;
2020/11/17 02:53:58;;;;;;;0.8;0.6;;;;;;;;;;;;;
2020/11/17 02:56:25;;;;;;;0.8;0.7;;;;;;;;;;;;;
2020/11/17 02:58:50;;;;;;;1.7;0.8;;;;;;;;;;;;;
2020/11/17 03:01:16;;;;;;;0.5;0.5;;;;;;;;;;;;;
2020/11/17 03:03:41;;;;;;;0.7;0.5;;;;;;;;;;;;;
2020/11/17 03:06:07;;;;;;;0.5;0.5;;;;;;;;;;;;;
2020/11/17 03:08:32;;;;;;;4.1;0.6;;;;;;;;;;;;;
2020/11/17 03:10:59;;;;;;;0.5;0.4;;;;;;;;;;;;;
2020/11/17 03:13:24;;;;;;;2.3;0.9;;;;;;;;;;;;;
2020/11/17 03:15:51;;;;;;;0.5;0.5;;;;;;;;;;;;;
2020/11/17 03:18:16;;;;;;;0.5;0.5;;;;;;;;;;;;;
2020/11/17 03:20:41;;;;;;;1;0.9;;;;;;;;;;;;;
2020/11/17 03:23:07;;;;;;;0.8;0.6;;;;;;;;;;;;;
2020/11/17 03:25:32;;;;;;;1.3;0.6;;;;;;;;;;;;;
2020/11/17 03:27:57;;;;;;;3.1;1;;;;;;;;;;;;;
2020/11/17 03:30:24;;;;;;;1.8;0.7;;;;;;;;;;;;;
2020/11/17 03:32:50;;;;;;;0.7;0.6;;;;;;;;;;;;;
2020/11/17 03:35:15;;;;;;;8.6;1.5;;;;;;;;;;;;;
2020/11/17 03:37:40;;;;;;;0.5;0.4;;;;;;;;;;;;;
2020/11/17 03:40:10;;;;;;;0.9;0.7;;;;;;;;;;;;;
2020/11/17 03:42:37;;;;;;;0.5;0.5;;;;;;;;;;;;;
2020/11/17 03:45:02;;;;;;;0.5;0.5;;;;;;;;;;;;;
2020/11/17 03:47:28;;;;;;;1.5;0.9;;;;;;;;;;;;;
2020/11/17 03:49:53;;;;;;;3.6;0.8;;;;;;;;;;;;;
2020/11/17 03:52:19;;;;;;;1.3;0.8;;;;;;;;;;;;;
2020/11/17 03:54:44;;;;;;;1.6;0.3;;;;;;;;;;;;;
2020/11/17 03:57:09;;;;;;;0.7;0.7;;;;;;;;;;;;;
2020/11/17 03:59:35;;;;;;;0.7;0.6;;;;;;;;;;;;;
2020/11/17 04:02:30;;;;;;;0.3;0.3;;;;;;;;;;;;;
2020/11/17 04:04:55;;;;;;;5.9;0.7;;;;;;;;;;;;;
2020/11/17 04:07:21;;;;;;;0.5;0.5;;;;;;;;;;;;;
2020/11/17 04:09:46;;;;;;;0.4;0.4;;;;;;;;;;;;;
2020/11/17 04:12:12;;;;;;;0.4;0.4;;;;;;;;;;;;;
2020/11/17 04:14:37;;;;;;;1;0.9;;;;;;;;;;;;;
2020/11/17 04:17:03;;;;;;;1.1;0.7;;;;;;;;;;;;;
2020/11/17 04:19:28;;;;;;;1;0.4;;;;;;;;;;;;;
2020/11/17 04:21:54;;;;;;;2.1;0.5;;;;;;;;;;;;;
2020/11/17 04:24:19;;;;;;;1;0.7;;;;;;;;;;;;;
2020/11/17 04:26:45;;;;;;;1.6;0.8;;;;;;;;;;;;;
2020/11/17 04:29:11;;;;;;;2.1;0.6;;;;;;;;;;;;;
2020/11/17 04:31:37;;;;;;;4.4;1.2;;;;;;;;;;;;;
2020/11/17 04:34:03;;;;;;;1.2;0.8;;;;;;;;;;;;;
2020/11/17 04:36:28;;;;;;;1.5;1;;;;;;;;;;;;;
2020/11/17 04:38:53;;;;;;;0.6;0.6;;;;;;;;;;;;;
2020/11/17 04:41:20;;;;;;;1.8;0.8;;;;;;;;;;;;;
2020/11/17 04:43:45;;;;;;;0.6;0.5;;;;;;;;;;;;;
2020/11/17 04:46:10;;;;;;;2;0.9;;;;;;;;;;;;;
2020/11/17 04:48:35;;;;;;;2.3;1.1;;;;;;;;;;;;;
2020/11/17 04:51:01;;;;;;;1.2;0.8;;;;;;;;;;;;;
2020/11/17 04:53:26;;;;;;;2.6;0.7;;;;;;;;;;;;;
2020/11/17 04:55:53;;;;;;;0.8;0.7;;;;;;;;;;;;;
2020/11/17 04:58:17;;;;;;;19.2;1.2;;;;;;;;;;;;;
2020/11/17 05:00:46;;;;;;;1.2;0.8;;;;;;;;;;;;;
2020/11/17 05:03:12;;;;;;;0.8;0.7;;;;;;;;;;;;;
2020/11/17 05:05:36;;;;;;;1.9;0.9;;;;;;;;;;;;;
2020/11/17 05:08:02;;;;;;;0.5;0.5;;;;;;;;;;;;;
2020/11/17 05:10:27;;;;;;;3;0.9;;;;;;;;;;;;;
2020/11/17 05:12:52;;;;;;;1.4;0.8;;;;;;;;;;;;;
2020/11/17 05:15:20;;;;;;;0.5;0.5;;;;;;;;;;;;;
2020/11/17 05:17:46;;;;;;;0.7;0.6;;;;;;;;;;;;;
2020/11/17 05:20:11;;;;;;;0.7;0.7;;;;;;;;;;;;;
2020/11/17 05:22:36;;;;;;;0.6;0.6;;;;;;;;;;;;;
2020/11/17 05:25:02;;;;;;;5.2;1.1;;;;;;;;;;;;;
2020/11/17 05:27:27;;;;;;;1;0.7;;;;;;;;;;;;;
2020/11/17 05:29:53;;;;;;;0.8;0.7;;;;;;;;;;;;;
2020/11/17 05:32:18;;;;;;;2.4;1.7;;;;;;;;;;;;;
2020/11/17 05:34:44;;;;;;;4.4;1.7;;;;;;;;;;;;;
2020/11/17 05:37:09;;;;;;;1.4;0.6;;;;;;;;;;;;;
2020/11/17 05:39:35;;;;;;;0.6;0.6;;;;;;;;;;;;;
2020/11/17 05:42:00;;;;;;;1.7;1.1;;;;;;;;;;;;;
2020/11/17 05:44:25;;;;;;;7.7;3.6;;;;;;;;;;;;;
2020/11/17 05:46:50;;;;;;;5.1;2.3;;;;;;;;;;;;;
2020/11/17 05:49:15;;;;;;;1.7;0.9;;;;;;;;;;;;;
2020/11/17 05:51:41;;;;;;;1.1;0.8;;;;;;;;;;;;;
2020/11/17 05:54:06;;;;;;;2.9;1.5;;;;;;;;;;;;;
2020/11/17 05:56:32;;;;;;;1.1;0.9;;;;;;;;;;;;;
2020/11/17 05:58:57;;;;;;;3.8;1.9;;;;;;;;;;;;;
2020/11/17 06:01:23;;;;;;;3.9;2;;;;;;;;;;;;;
2020/11/17 06:03:48;;;;;;;19.3;13.3;;;;;;;;;;;;;
2020/11/17 06:06:13;;;;;;;1.8;1.3;;;;;;;;;;;;;
2020/11/17 06:08:38;;;;;;;2.1;1.2;;;;;;;;;;;;;
2020/11/17 06:11:03;;;;;;;3.7;1.1;;;;;;;;;;;;;
2020/11/17 06:13:29;;;;;;;3.4;1.5;;;;;;;;;;;;;
2020/11/17 06:15:55;;;;;;;2.8;1.7;;;;;;;;;;;;;
2020/11/17 06:18:20;;;;;;;1.1;0.8;;;;;;;;;;;;;
2020/11/17 06:20:46;;;;;;;1.8;1;;;;;;;;;;;;;
2020/11/17 06:23:12;;;;;;;2.3;1.3;;;;;;;;;;;;;
2020/11/17 06:25:37;;;;;;;1;0.9;;;;;;;;;;;;;
2020/11/17 06:28:03;;;;;;;1.8;0.8;;;;;;;;;;;;;
2020/11/17 06:30:28;;;;;;;0.9;0.8;;;;;;;;;;;;;
2020/11/17 06:32:55;;;;;;;1.9;1.1;;;;;;;;;;;;;
2020/11/17 06:35:20;;;;;;;19.5;1;;;;;;;;;;;;;
2020/11/17 06:37:45;;;;;;;2.4;1.1;;;;;;;;;;;;;
2020/11/17 06:40:12;;;;;;;0.6;0.6;;;;;;;;;;;;;
2020/11/17 06:42:37;;;;;;;1.2;0.7;;;;;;;;;;;;;
2020/11/17 06:45:02;;;;;;;0.7;0.7;;;;;;;;;;;;;
2020/11/17 06:47:27;;;;;;;0.7;0.7;;;;;;;;;;;;;
2020/11/17 06:49:53;;;;;;;8;1.3;;;;;;;;;;;;;
2020/11/17 06:52:18;;;;;;;2.3;1.6;;;;;;;;;;;;;
2020/11/17 06:54:44;;;;;;;4.1;2.4;;;;;;;;;;;;;
2020/11/17 06:57:09;;;;;;;4.6;1.4;;;;;;;;;;;;;
2020/11/17 06:59:35;;;;;;;7.9;3.9;;;;;;;;;;;;;
2020/11/17 07:02:00;;;;;;;1.2;1.1;;;;;;;;;;;;;
2020/11/17 07:04:26;;;;;;;0.8;0.8;;;;;;;;;;;;;
2020/11/17 07:06:51;;;;;;;1.5;1;;;;;;;;;;;;;
2020/11/17 07:09:17;;;;;;;6.7;1.2;;;;;;;;;;;;;
2020/11/17 07:11:43;;;;;;;4.5;2.8;;;;;;;;;;;;;
2020/11/17 07:14:08;;;;;;;1.3;0.8;;;;;;;;;;;;;
2020/11/17 07:16:33;;;;;;;0.6;0.6;;;;;;;;;;;;;
2020/11/17 07:18:59;;;;;;;2.4;1.5;;;;;;;;;;;;;
2020/11/17 07:21:25;;;;;;;1.8;1;;;;;;;;;;;;;
2020/11/17 07:23:51;;;;;;;3.1;1.9;;;;;;;;;;;;;
2020/11/17 07:26:16;;;;;;;3.1;1.1;;;;;;;;;;;;;
2020/11/17 07:28:42;;;;;;;3.4;1.4;;;;;;;;;;;;;
2020/11/17 07:31:07;;;;;;;2.6;1.2;;;;;;;;;;;;;
2020/11/17 07:33:33;;;;;;;1.7;0.9;;;;;;;;;;;;;
2020/11/17 07:35:59;;;;;;;2.1;1.1;;;;;;;;;;;;;
2020/11/17 07:38:25;;;;;;;1;0.9;;;;;;;;;;;;;
2020/11/17 07:40:50;;;;;;;1.1;0.9;;;;;;;;;;;;;
2020/11/17 07:43:16;;;;;;;3.2;1.3;;;;;;;;;;;;;
2020/11/17 07:45:41;;;;;;;40.2;14.6;;;;;;;;;;;;;
2020/11/17 07:48:07;;;;;;;15.2;1.8;;;;;;;;;;;;;
2020/11/17 07:50:32;;;;;;;4.9;1.7;;;;;;;;;;;;;
2020/11/17 07:52:59;;;;;;;3.5;1.5;;;;;;;;;;;;;
2020/11/17 07:55:25;;;;;;;1.9;1.1;;;;;;;;;;;;;
2020/11/17 07:57:51;;;;;;;3.9;1.2;;;;;;;;;;;;;
2020/11/17 08:00:16;;;;;;;2.1;1;;;;;;;;;;;;;
2020/11/17 08:02:42;;;;;;;3.7;1.1;;;;;;;;;;;;;
2020/11/17 08:05:07;;;;;;;2.8;1.1;;;;;;;;;;;;;
2020/11/17 08:07:33;;;;;;;2.4;1;;;;;;;;;;;;;
2020/11/17 08:09:58;;;;;;;1.7;0.8;;;;;;;;;;;;;
2020/11/17 08:12:24;;;;;;;0.8;0.8;;;;;;;;;;;;;
2020/11/17 08:14:49;;;;;;;3.3;1.1;;;;;;;;;;;;;
2020/11/17 08:17:16;;;;;;;1.4;0.8;;;;;;;;;;;;;
2020/11/17 08:19:41;;;;;;;3.4;1.8;;;;;;;;;;;;;
2020/11/17 08:22:06;;;;;;;4.6;3.1;;;;;;;;;;;;;
2020/11/17 08:24:31;;;;;;;0.5;0.5;;;;;;;;;;;;;
2020/11/17 08:26:58;;;;;;;0.7;0.5;;;;;;;;;;;;;
2020/11/17 08:29:23;;;;;;;0.3;0.2;;;;;;;;;;;;;
2020/11/17 08:31:51;;;;;;;0.5;0.5;;;;;;;;;;;;;
2020/11/17 08:34:15;;;;;;;7.5;0.9;;;;;;;;;;;;;
2020/11/17 08:36:41;;;;;;;0.8;0.6;;;;;;;;;;;;;
2020/11/17 08:39:06;;;;;;;2.5;0.8;;;;;;;;;;;;;
2020/11/17 08:41:33;;;;;;;0.3;0.3;;;;;;;;;;;;;
2020/11/17 08:43:57;;;;;;;2.8;0.6;;;;;;;;;;;;;
2020/11/17 08:46:23;;;;;;;6.9;0.5;;;;;;;;;;;;;
2020/11/17 08:48:48;;;;;;;1.1;0.7;;;;;;;;;;;;;
2020/11/17 08:51:14;;;;;;;0.9;0.7;;;;;;;;;;;;;
2020/11/17 08:53:39;;;;;;;2.4;0.7;;;;;;;;;;;;;
2020/11/17 08:56:05;;;;;;;1.8;0.9;;;;;;;;;;;;;
2020/11/17 08:58:30;;;;;;;4.1;0.6;;;;;;;;;;;;;
2020/11/17 09:00:58;;;;;;;2.9;1;;;;;;;;;;;;;
2020/11/17 09:03:23;;;;;;;0.9;0.6;;;;;;;;;;;;;
2020/11/17 09:05:49;;;;;;;3;1.3;;;;;;;;;;;;;
2020/11/17 09:08:14;;;;;;;1.7;0.8;;;;;;;;;;;;;
2020/11/17 09:10:46;;;;;;;1.8;0.8;;;;;;;;;;;;;
2020/11/17 09:13:12;;;;;;;0.7;0.7;;;;;;;;;;;;;
2020/11/17 09:15:37;;;;;;;1.5;0.8;;;;;;;;;;;;;
2020/11/17 09:18:03;;;;;;;1.7;0.6;;;;;;;;;;;;;
2020/11/17 09:20:28;;;;;;;0.5;0.5;;;;;;;;;;;;;
2020/11/17 09:22:54;;;;;;;0.3;0.3;;;;;;;;;;;;;
2020/11/17 09:25:19;;;;;;;0.8;0.5;;;;;;;;;;;;;
2020/11/17 09:27:58;;;;;;;0.6;0.4;;;;;;;;;;;;;
2020/11/17 09:30:23;;;;;;;2;0.4;;;;;;;;;;;;;
2020/11/17 09:32:48;;;;;;;0.5;0.5;;;;;;;;;;;;;
2020/11/17 09:35:17;;;;;;;1;0.6;;;;;;;;;;;;;
2020/11/17 09:37:44;;;;;;;1.3;0.5;;;;;;;;;;;;;
2020/11/17 09:40:09;;;;;;;0.3;0.3;;;;;;;;;;;;;
2020/11/17 09:42:35;;;;;;;1.4;0.6;;;;;;;;;;;;;
2020/11/17 09:45:00;;;;;;;0.2;0.2;;;;;;;;;;;;;
2020/11/17 09:47:27;;;;;;;0.4;0.4;;;;;;;;;;;;;
2020/11/17 09:49:52;;;;;;;0.3;0.3;;;;;;;;;;;;;
2020/11/17 09:52:18;;;;;;;0.5;0.4;;;;;;;;;;;;;
2020/11/17 09:54:43;;;;;;;0.5;0.4;;;;;;;;;;;;;
2020/11/17 09:57:10;;;;;;;0.4;0.4;;;;;;;;;;;;;
2020/11/17 09:59:35;;;;;;;0.7;0.4;;;;;;;;;;;;;
2020/11/17 10:02:03;;;;;;;0.9;0.4;;;;;;;;;;;;;
2020/11/17 10:04:28;;;;;;;0.2;0.2;;;;;;;;;;;;;
2020/11/17 10:06:53;;;;;;;0.5;0.4;;;;;;;;;;;;;
2020/11/17 10:09:18;;;;;;;1.5;0.5;;;;;;;;;;;;;
2020/11/17 10:11:44;;;;;;;0.5;0.4;;;;;;;;;;;;;
2020/11/17 10:14:09;;;;;;;1.9;0.9;;;;;;;;;;;;;
2020/11/17 10:16:34;;;;;;;0.9;0.7;;;;;;;;;;;;;
2020/11/17 10:18:59;;;;;;;2.5;0.5;;;;;;;;;;;;;
2020/11/17 10:21:25;;;;;;;0.7;0.5;;;;;;;;;;;;;
2020/11/17 10:23:50;;;;;;;0.3;0.3;;;;;;;;;;;;;
2020/11/17 10:26:16;;;;;;;1.1;0.4;;;;;;;;;;;;;
2020/11/17 10:28:41;;;;;;;0.3;0.3;;;;;;;;;;;;;
2020/11/17 10:31:10;;;;;;;0.3;0.3;;;;;;;;;;;;;
2020/11/17 10:33:34;;;;;;;0.3;0.3;;;;;;;;;;;;;
2020/11/17 10:35:59;;;;;;;1.1;0.7;;;;;;;;;;;;;
2020/11/17 10:38:24;;;;;;;1.2;0.4;;;;;;;;;;;;;
2020/11/17 10:40:52;;;;;;;4.5;0.8;;;;;;;;;;;;;
2020/11/17 10:43:17;;;;;;;0.5;0.4;;;;;;;;;;;;;
2020/11/17 10:45:45;;;;;;;0.5;0.3;;;;;;;;;;;;;
2020/11/17 10:48:16;;;;;;;0.7;0.5;;;;;;;;;;;;;
2020/11/17 10:50:43;;;;;;;0.7;0.4;;;;;;;;;;;;;
2020/11/17 10:53:08;;;;;;;0.3;0.3;;;;;;;;;;;;;
2020/11/17 10:55:33;;;;;;;0.3;0.2;;;;;;;;;;;;;
2020/11/17 10:57:58;;;;;;;1;0.4;;;;;;;;;;;;;
2020/11/17 11:00:25;;;;;;;0.3;0.3;;;;;;;;;;;;;
2020/11/17 11:02:50;;;;;;;1.1;0.7;;;;;;;;;;;;;
2020/11/17 11:05:15;;;;;;;0.4;0.3;;;;;;;;;;;;;
2020/11/17 11:07:40;;;;;;;2.9;0.5;;;;;;;;;;;;;
2020/11/17 11:10:07;;;;;;;0.3;0.3;;;;;;;;;;;;;
2020/11/17 11:12:34;;;;;;;1;0.6;;;;;;;;;;;;;
2020/11/17 11:14:58;;;;;;;0.3;0.3;;;;;;;;;;;;;
2020/11/17 11:17:24;;;;;;;0.6;0.5;;;;;;;;;;;;;
2020/11/17 11:19:50;;;;;;;0.2;0.2;;;;;;;;;;;;;
2020/11/17 11:22:15;;;;;;;0.9;0.4;;;;;;;;;;;;;
2020/11/17 11:24:41;;;;;;;0.4;0.4;;;;;;;;;;;;;
2020/11/17 11:27:06;;;;;;;1.8;0.4;;;;;;;;;;;;;
2020/11/17 11:29:32;;;;;;;0.8;0.4;;;;;;;;;;;;;
2020/11/17 11:31:57;;;;;;;2;0.5;;;;;;;;;;;;;
2020/11/17 11:34:23;;;;;;;0.7;0.5;;;;;;;;;;;;;
2020/11/17 11:36:48;;;;;;;0.2;0.2;;;;;;;;;;;;;
2020/11/17 11:39:14;;;;;;;0.6;0.4;;;;;;;;;;;;;
2020/11/17 11:41:39;;;;;;;0.2;0.1;;;;;;;;;;;;;
2020/11/17 11:44:04;;;;;;;0.2;0.2;;;;;;;;;;;;;
2020/11/17 11:46:29;;;;;;;0.2;0.2;;;;;;;;;;;;;
2020/11/17 11:48:54;;;;;;;0.3;0.3;;;;;;;;;;;;;
2020/11/17 11:51:20;;;;;;;0.3;0.3;;;;;;;;;;;;;
2020/11/17 11:53:44;;;;;;;0.3;0.2;;;;;;;;;;;;;
2020/11/17 11:56:10;;;;;;;0.2;0.2;;;;;;;;;;;;;
2020/11/17 11:58:35;;;;;;;1.3;0.6;;;;;;;;;;;;;
2020/11/17 12:01:02;;;;;;;0.2;0.1;;;;;;;;;;;;;
2020/11/17 12:03:27;;;;;;;0.1;0.1;;;;;;;;;;;;;
2020/11/17 12:05:52;;;;;;;0.6;0.3;;;;;;;;;;;;;
2020/11/17 12:08:17;;;;;;;0.1;0.1;;;;;;;;;;;;;
2020/11/17 12:10:46;;;;;;;0.4;0.2;;;;;;;;;;;;;
2020/11/17 12:13:10;;;;;;;0.3;0.1;;;;;;;;;;;;;
2020/11/17 12:15:38;;;;;;;0.3;0.2;;;;;;;;;;;;;
2020/11/17 12:18:02;;;;;;;0.3;0.2;;;;;;;;;;;;;
2020/11/17 12:20:27;;;;;;;0.4;0.2;;;;;;;;;;;;;
2020/11/17 12:22:52;;;;;;;0.2;0.1;;;;;;;;;;;;;
2020/11/17 12:25:17;;;;;;;0.9;0.3;;;;;;;;;;;;;
2020/11/17 12:27:42;;;;;;;0.1;0.1;;;;;;;;;;;;;
2020/11/17 12:30:11;;;;;;;0.5;0.2;;;;;;;;;;;;;
2020/11/17 12:32:36;;;;;;;0.3;0.1;;;;;;;;;;;;;
2020/11/17 12:35:01;;;;;;;0.1;0.1;;;;;;;;;;;;;
2020/11/17 12:37:26;;;;;;;0.9;0.3;;;;;;;;;;;;;
2020/11/17 12:39:52;;;;;;;0.6;0.2;;;;;;;;;;;;;
2020/11/17 12:42:17;;;;;;;0.4;0.1;;;;;;;;;;;;;
2020/11/17 12:44:41;;;;;;;3;0.2;;;;;;;;;;;;;
2020/11/17 12:47:07;;;;;;;0.8;0.4;;;;;;;;;;;;;
2020/11/17 12:49:32;;;;;;;0.3;0.3;;;;;;;;;;;;;
2020/11/17 12:51:57;;;;;;;0.1;0.1;;;;;;;;;;;;;
2020/11/17 12:54:22;;;;;;;0;0;;;;;;;;;;;;;
2020/11/17 12:56:47;;;;;;;0.1;0.1;;;;;;;;;;;;;
2020/11/17 12:59:12;;;;;;;0.3;0.2;;;;;;;;;;;;;
2020/11/17 13:01:38;;;;;;;12.4;0.6;;;;;;;;;;;;;
2020/11/17 13:04:04;;;;;;;0.2;0.2;;;;;;;;;;;;;
2020/11/17 13:06:30;;;;;;;0.3;0.1;;;;;;;;;;;;;
2020/11/17 13:08:56;;;;;;;0.3;0.2;;;;;;;;;;;;;
2020/11/17 13:11:20;;;;;;;0.2;0.2;;;;;;;;;;;;;
2020/11/17 13:13:45;;;;;;;0.3;0.2;;;;;;;;;;;;;
2020/11/17 13:16:10;;;;;;;0.2;0.2;;;;;;;;;;;;;
2020/11/17 13:18:36;;;;;;;0.4;0.2;;;;;;;;;;;;;
2020/11/17 13:21:01;;;;;;;0.1;0.1;;;;;;;;;;;;;
2020/11/17 13:23:26;;;;;;;0.1;0.1;;;;;;;;;;;;;
2020/11/17 13:25:51;;;;;;;0.3;0.2;;;;;;;;;;;;;
2020/11/17 13:28:17;;;;;;;0.2;0.2;;;;;;;;;;;;;
2020/11/17 13:30:42;;;;;;;1.6;0.4;;;;;;;;;;;;;
2020/11/17 13:33:09;;;;;;;0.3;0.2;;;;;;;;;;;;;
2020/11/17 13:35:34;;;;;;;0.1;0.1;;;;;;;;;;;;;
2020/11/17 13:38:01;;;;;;;0.3;0.3;;;;;;;;;;;;;
2020/11/17 13:40:26;;;;;;;2.1;0.4;;;;;;;;;;;;;
2020/11/17 13:42:52;;;;;;;0.5;0.3;;;;;;;;;;;;;
2020/11/17 13:45:16;;;;;;;0.2;0.1;;;;;;;;;;;;;
2020/11/17 13:47:43;;;;;;;0.4;0.2;;;;;;;;;;;;;
2020/11/17 13:50:08;;;;;;;0.3;0.1;;;;;;;;;;;;;
2020/11/17 13:52:35;;;;;;;0.5;0.3;;;;;;;;;;;;;
2020/11/17 13:55:00;;;;;;;5.1;0.4;;;;;;;;;;;;;
2020/11/17 13:57:26;;;;;;;0.4;0.3;;;;;;;;;;;;;
2020/11/17 13:59:51;;;;;;;0.3;0.3;;;;;;;;;;;;;
2020/11/17 14:02:20;;;;;;;0.2;0.2;;;;;;;;;;;;;
2020/11/17 14:04:45;;;;;;;0.3;0.3;;;;;;;;;;;;;
2020/11/17 14:07:10;;;;;;;0.2;0.1;;;;;;;;;;;;;
2020/11/17 14:09:36;;;;;;;0.5;0.3;;;;;;;;;;;;;
2020/11/17 14:12:01;;;;;;;0.9;0.5;;;;;;;;;;;;;
2020/11/17 14:14:26;;;;;;;0.1;0.1;;;;;;;;;;;;;
2020/11/17 14:16:51;;;;;;;0.3;0.3;;;;;;;;;;;;;
2020/11/17 14:19:17;;;;;;;0.3;0.3;;;;;;;;;;;;;
2020/11/17 14:21:42;;;;;;;0.2;0.2;;;;;;;;;;;;;
2020/11/17 14:24:07;;;;;;;0.2;0.2;;;;;;;;;;;;;
2020/11/17 14:26:33;;;;;;;0.8;0.5;;;;;;;;;;;;;
2020/11/17 14:28:58;;;;;;;1.2;0.3;;;;;;;;;;;;;
2020/11/17 14:31:26;;;;;;;0.4;0.3;;;;;;;;;;;;;
2020/11/17 14:33:51;;;;;;;5.1;0.5;;;;;;;;;;;;;
2020/11/17 14:36:16;;;;;;;0.5;0.3;;;;;;;;;;;;;
2020/11/17 14:38:41;;;;;;;1.1;0.4;;;;;;;;;;;;;
2020/11/17 14:41:10;;;;;;;0.4;0.2;;;;;;;;;;;;;
2020/11/17 14:43:34;;;;;;;0.6;0.5;;;;;;;;;;;;;
2020/11/17 14:46:01;;;;;;;0.6;0.3;;;;;;;;;;;;;
2020/11/17 14:48:26;;;;;;;1.1;0.5;;;;;;;;;;;;;
2020/11/17 14:50:53;;;;;;;7.7;2.8;;;;;;;;;;;;;
2020/11/17 14:53:18;;;;;;;18.5;9.1;;;;;;;;;;;;;
2020/11/17 14:55:43;;;;;;;6.9;3.5;;;;;;;;;;;;;
2020/11/17 14:58:08;;;;;;;1.3;1;;;;;;;;;;;;;
2020/11/17 15:00:38;;;;;;;2.2;1.2;;;;;;;;;;;;;
2020/11/17 15:03:04;;;;;;;2.1;1;;;;;;;;;;;;;
2020/11/17 15:05:29;;;;;;;1.6;1;;;;;;;;;;;;;
2020/11/17 15:07:56;;;;;;;1.6;1.2;;;;;;;;;;;;;
2020/11/17 15:10:21;;;;;;;1.1;0.9;;;;;;;;;;;;;
2020/11/17 15:12:46;;;;;;;1;0.7;;;;;;;;;;;;;
2020/11/17 15:15:11;;;;;;;0.9;0.9;;;;;;;;;;;;;
2020/11/17 15:17:38;;;;;;;1.8;1;;;;;;;;;;;;;
2020/11/17 15:20:03;;;;;;;2.7;1.6;;;;;;;;;;;;;
2020/11/17 15:22:29;;;;;;;2.3;1.6;;;;;;;;;;;;;
2020/11/17 15:24:54;;;;;;;4.1;2.5;;;;;;;;;;;;;
2020/11/17 15:27:21;;;;;;;2.6;1.6;;;;;;;;;;;;;
2020/11/17 15:29:46;;;;;;;3.9;1.7;;;;;;;;;;;;;
2020/11/17 15:32:13;;;;;;;2.7;1.4;;;;;;;;;;;;;
2020/11/17 15:34:38;;;;;;;8;1;;;;;;;;;;;;;
2020/11/17 15:37:05;;;;;;;1.4;0.9;;;;;;;;;;;;;
2020/11/17 15:39:30;;;;;;;4.3;1;;;;;;;;;;;;;
2020/11/17 15:41:55;;;;;;;1.1;0.9;;;;;;;;;;;;;
2020/11/17 15:44:20;;;;;;;2.9;1.3;;;;;;;;;;;;;
2020/11/17 15:46:48;;;;;;;2.6;1.4;;;;;;;;;;;;;
2020/11/17 15:49:13;;;;;;;9.8;2.1;;;;;;;;;;;;;
2020/11/17 15:51:39;;;;;;;3.1;1.7;;;;;;;;;;;;;
2020/11/17 15:54:04;;;;;;;6.2;3.8;;;;;;;;;;;;;
2020/11/17 15:56:31;;;;;;;11.3;4;;;;;;;;;;;;;
2020/11/17 15:58:56;;;;;;;8.1;3.6;;;;;;;;;;;;;
2020/11/17 16:01:21;;;;;;;13.9;6.4;;;;;;;;;;;;;
2020/11/17 16:03:46;;;;;;;6.6;4.3;;;;;;;;;;;;;
2020/11/17 16:06:11;;;;;;;4.2;2.3;;;;;;;;;;;;;
2020/11/17 16:08:36;;;;;;;7.3;2.3;;;;;;;;;;;;;
2020/11/17 16:11:01;;;;;;;8.5;2.8;;;;;;;;;;;;;
2020/11/17 16:13:27;;;;;;;6.2;3;;;;;;;;;;;;;
2020/11/17 16:15:52;;;;;;;6.4;3.1;;;;;;;;;;;;;
2020/11/17 16:18:18;;;;;;;5.3;2.3;;;;;;;;;;;;;
2020/11/17 16:20:43;;;;;;;3.1;1.7;;;;;;;;;;;;;
2020/11/17 16:23:09;;;;;;;3.2;2.1;;;;;;;;;;;;;
2020/11/17 16:25:34;;;;;;;5.9;2.1;;;;;;;;;;;;;
2020/11/17 16:28:00;;;;;;;12.7;3.4;;;;;;;;;;;;;
2020/11/17 16:30:26;;;;;;;9;4.2;;;;;;;;;;;;;
2020/11/17 16:32:52;;;;;;;6.2;3.2;;;;;;;;;;;;;
2020/11/17 16:35:18;;;;;;;10.7;4.5;;;;;;;;;;;;;
2020/11/17 16:37:43;;;;;;;11;4.8;;;;;;;;;;;;;
2020/11/17 16:40:09;;;;;;;11.4;4;;;;;;;;;;;;;
2020/11/17 16:42:35;;;;;;;19.8;7.8;;;;;;;;;;;;;
2020/11/17 16:45:00;;;;;;;10.5;6;;;;;;;;;;;;;
2020/11/17 16:47:27;;;;;;;13.5;5.6;;;;;;;;;;;;;
2020/11/17 16:49:52;;;;;;;10.9;4.7;;;;;;;;;;;;;
2020/11/17 16:52:18;;;;;;;18.2;4.6;;;;;;;;;;;;;
2020/11/17 16:54:43;;;;;;;7.2;4.2;;;;;;;;;;;;;
2020/11/17 16:57:09;;;;;;;10.9;5.5;;;;;;;;;;;;;
2020/11/17 16:59:34;;;;;;;21.5;6.7;;;;;;;;;;;;;
2020/11/17 17:02:01;;;;;;;14.4;6.2;;;;;;;;;;;;;
2020/11/17 17:04:26;;;;;;;10.1;5.8;;;;;;;;;;;;;
2020/11/17 17:06:52;;;;;;;11.5;6.2;;;;;;;;;;;;;
2020/11/17 17:09:18;;;;;;;18.5;7.6;;;;;;;;;;;;;
2020/11/17 17:11:45;;;;;;;8.5;4.6;;;;;;;;;;;;;
2020/11/17 17:14:10;;;;;;;6.6;4.3;;;;;;;;;;;;;
2020/11/17 17:16:37;;;;;;;10.9;5.2;;;;;;;;;;;;;
2020/11/17 17:19:04;;;;;;;8.1;3.8;;;;;;;;;;;;;
2020/11/17 17:21:26;;;;;;;12.6;5.4;;;;;;;;;;;;;
2020/11/17 17:23:51;;;;;;;13.9;5.7;;;;;;;;;;;;;
2020/11/17 17:26:16;;;;;;;21.5;11.3;;;;;;;;;;;;;
2020/11/17 17:28:42;;;;;;;11.6;5.2;;;;;;;;;;;;;
2020/11/17 17:31:07;;;;;;;12.7;6.2;;;;;;;;;;;;;
2020/11/17 17:33:32;;;;;;;23.8;10.7;;;;;;;;;;;;;
2020/11/17 17:35:57;;;;;;;42;16.1;;;;;;;;;;;;;
2020/11/17 17:38:23;;;;;;;23.6;10.3;;;;;;;;;;;;;
2020/11/17 17:40:50;;;;;;;21;9.3;;;;;;;;;;;;;
2020/11/17 17:43:15;;;;;;;19.7;8.6;;;;;;;;;;;;;
2020/11/17 17:45:39;;;;;;;35.7;12.2;;;;;;;;;;;;;
2020/11/17 17:48:06;;;;;;;13.9;6.4;;;;;;;;;;;;;
2020/11/17 17:50:31;;;;;;;15;7.3;;;;;;;;;;;;;
2020/11/17 17:52:57;;;;;;;15.2;8;;;;;;;;;;;;;
2020/11/17 17:55:22;;;;;;;19.1;7.2;;;;;;;;;;;;;
2020/11/17 17:57:48;;;;;;;13.9;6.9;;;;;;;;;;;;;
2020/11/17 18:00:16;;;;;;;16;6.8;;;;;;;;;;;;;
2020/11/17 18:02:42;;;;;;;29;10.4;;;;;;;;;;;;;
2020/11/17 18:05:07;;;;;;;15.8;7.8;;;;;;;;;;;;;
2020/11/17 18:07:32;;;;;;;18.6;8.2;;;;;;;;;;;;;
2020/11/17 18:09:58;;;;;;;16.6;6.8;;;;;;;;;;;;;
2020/11/17 18:12:23;;;;;;;13.4;6.6;;;;;;;;;;;;;
2020/11/17 18:14:48;;;;;;;9.6;4.7;;;;;;;;;;;;;
2020/11/17 18:17:14;;;;;;;8.6;4.7;;;;;;;;;;;;;
2020/11/17 18:19:39;;;;;;;10;5;;;;;;;;;;;;;
2020/11/17 18:22:06;;;;;;;9.7;4.7;;;;;;;;;;;;;
2020/11/17 18:24:30;;;;;;;10.3;5.3;;;;;;;;;;;;;
2020/11/17 18:26:57;;;;;;;9.7;4.2;;;;;;;;;;;;;
2020/11/17 18:29:21;;;;;;;7.6;4.4;;;;;;;;;;;;;
2020/11/17 18:31:48;;;;;;;8;5;;;;;;;;;;;;;
2020/11/17 18:34:14;;;;;;;11;4.9;;;;;;;;;;;;;
2020/11/17 18:36:40;;;;;;;13;5.4;;;;;;;;;;;;;
2020/11/17 18:39:04;;;;;;;12;5.3;;;;;;;;;;;;;
2020/11/17 18:41:31;;;;;;;14.3;6.7;;;;;;;;;;;;;
2020/11/17 18:43:56;;;;;;;14.8;7;;;;;;;;;;;;;
2020/11/17 18:46:22;;;;;;;13.5;6.4;;;;;;;;;;;;;
2020/11/17 18:48:48;;;;;;;13.7;7.4;;;;;;;;;;;;;
2020/11/17 18:51:15;;;;;;;14;6.7;;;;;;;;;;;;;
2020/11/17 18:53:40;;;;;;;7.5;4.8;;;;;;;;;;;;;
2020/11/17 18:56:05;;;;;;;11.8;5.3;;;;;;;;;;;;;
2020/11/17 18:58:30;;;;;;;9.5;5.3;;;;;;;;;;;;;
2020/11/17 19:00:56;;;;;;;11.6;6.3;;;;;;;;;;;;;
2020/11/17 19:03:21;;;;;;;11.3;5.9;;;;;;;;;;;;;
2020/11/17 19:05:49;;;;;;;23.9;5.9;;;;;;;;;;;;;
2020/11/17 19:08:14;;;;;;;17.8;8.5;;;;;;;;;;;;;
2020/11/17 19:10:41;;;;;;;18;6.4;;;;;;;;;;;;;
2020/11/17 19:13:06;;;;;;;13.7;6.9;;;;;;;;;;;;;
2020/11/17 19:15:33;;;;;;;13.4;6.5;;;;;;;;;;;;;
2020/11/17 19:17:57;;;;;;;12.2;5.8;;;;;;;;;;;;;
2020/11/17 19:20:22;;;;;;;9.7;5;;;;;;;;;;;;;
2020/11/17 19:22:47;;;;;;;14.7;5.8;;;;;;;;;;;;;
2020/11/17 19:25:14;;;;;;;14.1;7;;;;;;;;;;;;;
2020/11/17 19:27:38;;;;;;;12.9;6.2;;;;;;;;;;;;;
2020/11/17 19:30:03;;;;;;;16.2;5.8;;;;;;;;;;;;;
2020/11/17 19:32:28;;;;;;;6.4;4.1;;;;;;;;;;;;;
2020/11/17 19:34:55;;;;;;;9.6;5.1;;;;;;;;;;;;;
2020/11/17 19:37:20;;;;;;;12.4;5.9;;;;;;;;;;;;;
2020/11/17 19:39:46;;;;;;;11.1;4.8;;;;;;;;;;;;;
2020/11/17 19:42:11;;;;;;;14.9;5.7;;;;;;;;;;;;;
2020/11/17 19:44:38;;;;;;;8.8;4.7;;;;;;;;;;;;;
2020/11/17 19:47:03;;;;;;;5.8;3.6;;;;;;;;;;;;;
2020/11/17 19:49:30;;;;;;;7.6;3.7;;;;;;;;;;;;;
2020/11/17 19:51:55;;;;;;;12.8;5.7;;;;;;;;;;;;;
2020/11/17 19:54:20;;;;;;;10.5;4.6;;;;;;;;;;;;;
2020/11/17 19:56:45;;;;;;;12.6;4.9;;;;;;;;;;;;;
2020/11/17 19:59:12;;;;;;;7.4;4.6;;;;;;;;;;;;;
2020/11/17 20:01:37;;;;;;;11.1;5.6;;;;;;;;;;;;;
2020/11/17 20:04:03;;;;;;;8.8;5.4;;;;;;;;;;;;;
2020/11/17 20:06:29;;;;;;;16.3;7.1;;;;;;;;;;;;;
2020/11/17 20:08:55;;;;;;;15.7;7.4;;;;;;;;;;;;;
2020/11/17 20:11:20;;;;;;;17.8;8;;;;;;;;;;;;;
2020/11/17 20:13:46;;;;;;;12.7;6.5;;;;;;;;;;;;;
2020/11/17 20:16:11;;;;;;;14.1;6.9;;;;;;;;;;;;;
2020/11/17 20:18:38;;;;;;;11;6.1;;;;;;;;;;;;;
2020/11/17 20:21:05;;;;;;;12.2;6.9;;;;;;;;;;;;;
2020/11/17 20:23:29;;;;;;;9.1;5;;;;;;;;;;;;;
2020/11/17 20:25:54;;;;;;;6.9;3.9;;;;;;;;;;;;;
2020/11/17 20:28:20;;;;;;;10.1;4.7;;;;;;;;;;;;;
2020/11/17 20:30:45;;;;;;;9.9;4.7;;;;;;;;;;;;;